Time;durP1;ratioP1;P1;durP2;ratioP2;P2;SDS_P1;SDS_P2;PMS_P1;PMS_P2;Temp;Humidity;BMP_temperature;BMP_pressure;BME280_temperature;BME280_humidity;BME280_pressure;Samples;Min_cycle;Max_cycle;Signal;HPM_P1;HPM_P2
2023/08/26 00:00:38;;;;;;;19.45;11.52;;;;;;;;;;5088534;28;20070;-76
2023/08/26 00:03:04;;;;;;;17.20;9.90;;;;;;;;;;5109267;28;20082;-76
2023/08/26 00:05:30;;;;;;;17.55;10.57;;;;;;;;;;5082339;28;20059;-82
2023/08/26 00:07:56;;;;;;;16.00;10.10;;;;;;;;;;5074085;28;20028;-82
2023/08/26 00:10:22;;;;;;;17.52;10.60;;;;;;;;;;5091812;28;20644;-85
2023/08/26 00:12:48;;;;;;;15.40;10.18;;;;;;;;;;5066904;28;20032;-84
2023/08/26 00:15:17;;;;;;;19.20;9.77;;;;;;;;;;5075534;28;20036;-79
2023/08/26 00:17:45;;;;;;;13.35;9.25;;;;;;;;;;5082149;28;20032;-77
2023/08/26 00:20:14;;;;;;;17.10;9.88;;;;;;;;;;5095307;28;20020;-76
2023/08/26 00:22:40;;;;;;;16.02;9.95;;;;;;;;;;5090196;28;20024;-76
2023/08/26 00:25:07;;;;;;;17.90;10.32;;;;;;;;;;5088275;28;20047;-76
2023/08/26 00:27:33;;;;;;;14.95;9.45;;;;;;;;;;5106292;28;20034;-77
2023/08/26 00:29:59;;;;;;;13.65;9.57;;;;;;;;;;5087925;28;20102;-77
2023/08/26 00:32:25;;;;;;;18.75;9.15;;;;;;;;;;5102847;28;20492;-78
2023/08/26 00:34:51;;;;;;;19.05;11.07;;;;;;;;;;5084756;28;20048;-79
2023/08/26 00:37:17;;;;;;;14.18;10.18;;;;;;;;;;5078264;28;20037;-84
2023/08/26 00:39:43;;;;;;;20.17;10.60;;;;;;;;;;5081760;28;20058;-79
2023/08/26 00:42:09;;;;;;;18.00;10.65;;;;;;;;;;5090120;28;20060;-82
2023/08/26 00:44:35;;;;;;;13.82;10.65;;;;;;;;;;5072899;28;20029;-84
2023/08/26 00:47:01;;;;;;;22.52;10.23;;;;;;;;;;5087317;28;20037;-82
2023/08/26 00:49:28;;;;;;;15.25;9.40;;;;;;;;;;5068175;28;20032;-85
2023/08/26 00:51:56;;;;;;;19.90;10.15;;;;;;;;;;5069688;28;20033;-83
2023/08/26 00:54:22;;;;;;;15.82;10.32;;;;;;;;;;5091238;28;20094;-82
2023/08/26 00:56:48;;;;;;;14.38;9.57;;;;;;;;;;5088588;28;20082;-83
2023/08/26 00:59:17;;;;;;;14.25;8.90;;;;;;;;;;5081774;28;20021;-78
2023/08/26 01:01:44;;;;;;;18.00;9.30;;;;;;;;;;5103660;28;20039;-79
2023/08/26 01:04:11;;;;;;;14.55;8.40;;;;;;;;;;5081865;28;20016;-79
2023/08/26 01:06:39;;;;;;;15.18;8.07;;;;;;;;;;5100643;28;20060;-79
2023/08/26 01:09:05;;;;;;;13.00;8.00;;;;;;;;;;5079396;28;20063;-80
2023/08/26 01:11:31;;;;;;;16.38;7.80;;;;;;;;;;5096289;28;20047;-82
2023/08/26 01:14:15;;;;;;;14.95;7.47;;;;;;;;;;5104083;28;20044;-76
2023/08/26 01:16:42;;;;;;;14.23;7.43;;;;;;;;;;5088175;28;20047;-77
2023/08/26 01:19:40;;;;;;;16.40;7.10;;;;;;;;;;5104173;28;20024;-79
2023/08/26 01:22:13;;;;;;;12.02;6.40;;;;;;;;;;5051297;28;20040;-80
2023/08/26 01:24:41;;;;;;;13.98;6.03;;;;;;;;;;5106471;28;20033;-76
2023/08/26 01:27:07;;;;;;;13.80;5.60;;;;;;;;;;5087854;28;20012;-75
2023/08/26 01:29:35;;;;;;;14.25;6.07;;;;;;;;;;5107391;28;20027;-76
2023/08/26 01:32:06;;;;;;;11.48;5.30;;;;;;;;;;5087810;28;20021;-76
2023/08/26 01:34:37;;;;;;;9.63;5.55;;;;;;;;;;5107988;28;20036;-76
2023/08/26 01:37:03;;;;;;;9.35;5.35;;;;;;;;;;5109299;28;20017;-76
2023/08/26 01:39:29;;;;;;;10.93;5.70;;;;;;;;;;5107027;28;20023;-76
2023/08/26 01:41:56;;;;;;;10.45;5.60;;;;;;;;;;5106088;28;20020;-76
2023/08/26 01:44:23;;;;;;;12.95;5.90;;;;;;;;;;5091344;28;20029;-75
2023/08/26 01:46:51;;;;;;;13.43;6.25;;;;;;;;;;5089451;28;20029;-76
2023/08/26 01:49:17;;;;;;;11.25;5.65;;;;;;;;;;5086157;28;20024;-76
2023/08/26 01:51:43;;;;;;;12.13;6.45;;;;;;;;;;5106072;28;20012;-75
2023/08/26 01:54:09;;;;;;;13.40;5.97;;;;;;;;;;5088797;28;20036;-75
2023/08/26 01:56:37;;;;;;;10.98;5.70;;;;;;;;;;5088001;28;20028;-76
2023/08/26 01:59:03;;;;;;;9.68;5.22;;;;;;;;;;5108017;28;20032;-76
2023/08/26 02:01:33;;;;;;;13.77;5.88;;;;;;;;;;5105860;28;20017;-76
2023/08/26 02:04:02;;;;;;;8.32;5.40;;;;;;;;;;5090710;28;20040;-75
2023/08/26 02:06:28;;;;;;;12.75;6.82;;;;;;;;;;5090631;28;20025;-75
2023/08/26 02:08:57;;;;;;;12.50;6.20;;;;;;;;;;5105650;28;20056;-76
2023/08/26 02:11:23;;;;;;;9.18;5.93;;;;;;;;;;5107899;28;20029;-75
2023/08/26 02:13:49;;;;;;;11.13;6.45;;;;;;;;;;5091185;28;20063;-75
2023/08/26 02:16:15;;;;;;;14.75;6.10;;;;;;;;;;5088176;28;20032;-76
2023/08/26 02:18:41;;;;;;;11.25;6.05;;;;;;;;;;5090504;28;20047;-75
2023/08/26 02:21:08;;;;;;;15.50;6.50;;;;;;;;;;5089661;28;20047;-75
2023/08/26 02:23:34;;;;;;;13.68;6.05;;;;;;;;;;5090794;28;20013;-76
2023/08/26 02:26:00;;;;;;;8.80;4.93;;;;;;;;;;5094448;28;20099;-76
2023/08/26 02:28:27;;;;;;;12.75;5.25;;;;;;;;;;5094954;28;20058;-75
2023/08/26 02:30:52;;;;;;;12.75;5.25;;;;;;;;;;5090345;28;20104;-75
2023/08/26 02:33:18;;;;;;;11.18;4.70;;;;;;;;;;5089051;28;20036;-75
2023/08/26 02:35:50;;;;;;;11.88;4.57;;;;;;;;;;5107982;28;20021;-76
2023/08/26 02:38:16;;;;;;;10.57;4.43;;;;;;;;;;5107670;28;20021;-75
2023/08/26 02:40:50;;;;;;;9.18;4.85;;;;;;;;;;5089697;28;20044;-76
2023/08/26 02:43:16;;;;;;;8.77;4.43;;;;;;;;;;5088695;28;20258;-76
2023/08/26 02:45:45;;;;;;;10.68;4.50;;;;;;;;;;5106577;28;20048;-75
2023/08/26 02:48:11;;;;;;;12.85;4.78;;;;;;;;;;5089787;28;20043;-75
2023/08/26 02:50:39;;;;;;;11.23;3.85;;;;;;;;;;5087938;28;20096;-75
2023/08/26 02:53:05;;;;;;;9.95;3.53;;;;;;;;;;5104028;28;20032;-75
2023/08/26 02:55:31;;;;;;;9.40;3.85;;;;;;;;;;5089935;28;20016;-75
2023/08/26 02:57:57;;;;;;;7.32;3.75;;;;;;;;;;5108558;28;20021;-76
2023/08/26 03:00:23;;;;;;;11.13;4.28;;;;;;;;;;5091422;28;20220;-75
2023/08/26 03:02:49;;;;;;;14.18;4.68;;;;;;;;;;5098882;28;20097;-76
2023/08/26 03:05:15;;;;;;;8.05;3.65;;;;;;;;;;5089804;28;20056;-75
2023/08/26 03:07:43;;;;;;;16.30;3.50;;;;;;;;;;5092908;28;20088;-75
2023/08/26 03:10:09;;;;;;;8.50;3.40;;;;;;;;;;5110169;28;20060;-75
2023/08/26 03:12:36;;;;;;;7.13;3.33;;;;;;;;;;5093836;28;20028;-75
2023/08/26 03:15:02;;;;;;;8.45;3.10;;;;;;;;;;5097695;28;20059;-75
2023/08/26 03:17:28;;;;;;;6.22;2.95;;;;;;;;;;5098617;28;20036;-75
2023/08/26 03:19:54;;;;;;;11.55;2.85;;;;;;;;;;5110432;28;20052;-76
2023/08/26 03:22:22;;;;;;;9.50;2.58;;;;;;;;;;5090414;28;20055;-75
2023/08/26 03:24:48;;;;;;;7.80;2.17;;;;;;;;;;5093719;28;20040;-75
2023/08/26 03:27:14;;;;;;;4.68;2.10;;;;;;;;;;5089557;28;20052;-75
2023/08/26 03:29:45;;;;;;;6.72;2.40;;;;;;;;;;5108616;28;20039;-75
2023/08/26 03:32:11;;;;;;;6.88;1.80;;;;;;;;;;5089962;28;20009;-75
2023/08/26 03:34:37;;;;;;;6.85;2.63;;;;;;;;;;5090315;28;20036;-76
2023/08/26 03:37:03;;;;;;;7.45;2.28;;;;;;;;;;5089345;28;20031;-75
2023/08/26 03:39:29;;;;;;;12.82;1.83;;;;;;;;;;5095582;28;20039;-75
2023/08/26 03:41:55;;;;;;;7.85;2.25;;;;;;;;;;5091271;28;20046;-75
2023/08/26 03:44:21;;;;;;;7.00;2.20;;;;;;;;;;5110153;28;20036;-75
2023/08/26 03:46:47;;;;;;;7.45;1.80;;;;;;;;;;5109238;28;20013;-76
2023/08/26 03:49:16;;;;;;;4.93;1.77;;;;;;;;;;5091709;28;20029;-75
2023/08/26 03:51:42;;;;;;;3.80;1.50;;;;;;;;;;5110650;28;20017;-75
2023/08/26 03:54:08;;;;;;;3.50;1.98;;;;;;;;;;5096982;28;20243;-77
2023/08/26 03:56:34;;;;;;;3.72;1.45;;;;;;;;;;5111795;28;20044;-75
2023/08/26 03:59:00;;;;;;;4.13;2.00;;;;;;;;;;5092568;28;20103;-77
2023/08/26 04:01:26;;;;;;;6.28;1.80;;;;;;;;;;5086959;28;20028;-75
2023/08/26 04:03:53;;;;;;;9.82;1.80;;;;;;;;;;5092077;28;20012;-76
2023/08/26 04:06:22;;;;;;;7.13;1.73;;;;;;;;;;5107497;28;20036;-76
2023/08/26 04:08:48;;;;;;;2.67;1.27;;;;;;;;;;5110148;28;20037;-76
2023/08/26 04:11:16;;;;;;;5.88;1.88;;;;;;;;;;5095448;28;20614;-76
2023/08/26 04:13:45;;;;;;;7.88;1.80;;;;;;;;;;5085991;28;20028;-76
2023/08/26 04:16:11;;;;;;;5.28;1.38;;;;;;;;;;5109727;28;20048;-75
2023/08/26 04:18:39;;;;;;;5.05;1.60;;;;;;;;;;5108121;28;20009;-75
2023/08/26 04:21:08;;;;;;;4.60;1.88;;;;;;;;;;5091125;28;20032;-76
2023/08/26 04:23:34;;;;;;;5.28;1.42;;;;;;;;;;5091274;28;20021;-77
2023/08/26 04:26:00;;;;;;;4.45;1.13;;;;;;;;;;5091687;28;20020;-75
2023/08/26 04:28:26;;;;;;;8.48;1.60;;;;;;;;;;5109578;28;20008;-77
2023/08/26 04:30:54;;;;;;;8.70;1.85;;;;;;;;;;5109098;28;20024;-75
2023/08/26 04:33:20;;;;;;;5.85;2.33;;;;;;;;;;5109259;28;20074;-75
2023/08/26 04:35:46;;;;;;;3.13;1.33;;;;;;;;;;5108290;28;20054;-75
2023/08/26 04:38:13;;;;;;;4.40;1.50;;;;;;;;;;5088070;28;20055;-75
2023/08/26 04:40:41;;;;;;;5.80;1.30;;;;;;;;;;5109018;28;20065;-75
2023/08/26 04:43:11;;;;;;;5.30;1.40;;;;;;;;;;5108857;28;20023;-76
2023/08/26 04:45:38;;;;;;;6.45;1.50;;;;;;;;;;5086637;28;20032;-75
2023/08/26 04:48:07;;;;;;;3.33;1.25;;;;;;;;;;5109003;28;20131;-75
2023/08/26 04:50:36;;;;;;;3.40;1.42;;;;;;;;;;5089953;28;20160;-76
2023/08/26 04:53:03;;;;;;;2.70;1.10;;;;;;;;;;5109338;28;20009;-75
2023/08/26 04:55:29;;;;;;;4.50;1.00;;;;;;;;;;5090797;28;20051;-75
2023/08/26 04:57:56;;;;;;;2.47;1.35;;;;;;;;;;5086208;28;20096;-75
2023/08/26 05:00:22;;;;;;;5.30;0.90;;;;;;;;;;5089109;28;20016;-76
2023/08/26 05:02:50;;;;;;;2.20;1.10;;;;;;;;;;5089806;28;20090;-75
2023/08/26 05:05:19;;;;;;;4.13;1.08;;;;;;;;;;5089619;28;20209;-75
2023/08/26 05:07:45;;;;;;;4.13;1.00;;;;;;;;;;5108813;28;20088;-77
2023/08/26 05:10:11;;;;;;;4.40;1.85;;;;;;;;;;5090755;28;20041;-76
2023/08/26 05:12:39;;;;;;;4.28;0.90;;;;;;;;;;5107410;28;20081;-75
2023/08/26 05:15:06;;;;;;;5.18;0.93;;;;;;;;;;5088506;28;20024;-75
2023/08/26 05:17:32;;;;;;;4.38;1.30;;;;;;;;;;5108510;28;20036;-75
2023/08/26 05:19:58;;;;;;;2.65;1.02;;;;;;;;;;5090883;28;20032;-76
2023/08/26 05:22:24;;;;;;;2.33;0.85;;;;;;;;;;5107033;28;20030;-75
2023/08/26 05:24:50;;;;;;;3.17;1.10;;;;;;;;;;5091708;28;20055;-75
2023/08/26 05:27:16;;;;;;;3.25;0.85;;;;;;;;;;5088255;28;20021;-76
2023/08/26 05:29:42;;;;;;;4.65;1.13;;;;;;;;;;5106956;28;20082;-75
2023/08/26 05:32:08;;;;;;;4.47;1.10;;;;;;;;;;5107778;28;20024;-75
2023/08/26 05:34:34;;;;;;;3.90;0.80;;;;;;;;;;5090335;28;20100;-75
2023/08/26 05:37:00;;;;;;;2.45;0.85;;;;;;;;;;5085114;28;20110;-75
2023/08/26 05:39:26;;;;;;;4.18;1.00;;;;;;;;;;5090743;28;20050;-76
2023/08/26 05:41:52;;;;;;;3.30;0.68;;;;;;;;;;5089743;28;20044;-76
2023/08/26 05:44:18;;;;;;;4.30;1.00;;;;;;;;;;5088379;28;20071;-75
2023/08/26 05:46:44;;;;;;;3.17;1.02;;;;;;;;;;5107733;28;20036;-76
2023/08/26 05:49:10;;;;;;;2.58;0.68;;;;;;;;;;5108349;28;20016;-76
2023/08/26 05:51:36;;;;;;;4.22;1.00;;;;;;;;;;5083370;28;20062;-75
2023/08/26 05:54:02;;;;;;;6.22;0.98;;;;;;;;;;5087999;28;20012;-75
2023/08/26 05:56:28;;;;;;;3.15;0.75;;;;;;;;;;5090148;28;20027;-75
2023/08/26 05:58:54;;;;;;;2.38;1.13;;;;;;;;;;5105643;28;20044;-75
2023/08/26 06:01:20;;;;;;;2.38;0.88;;;;;;;;;;5108137;28;20129;-76
2023/08/26 06:03:46;;;;;;;8.27;1.05;;;;;;;;;;5107115;28;20032;-76
2023/08/26 06:06:12;;;;;;;2.55;0.82;;;;;;;;;;5088821;28;20033;-76
2023/08/26 06:08:38;;;;;;;5.00;1.00;;;;;;;;;;5081371;28;20092;-76
2023/08/26 06:11:06;;;;;;;4.88;1.17;;;;;;;;;;5088669;28;20029;-76
2023/08/26 06:13:32;;;;;;;6.38;1.65;;;;;;;;;;5106909;28;20045;-75
2023/08/26 06:15:58;;;;;;;2.22;0.75;;;;;;;;;;5105124;28;20060;-77
2023/08/26 06:18:28;;;;;;;4.07;0.95;;;;;;;;;;5107418;28;20024;-77
2023/08/26 06:20:54;;;;;;;3.60;0.80;;;;;;;;;;5104274;28;20033;-77
2023/08/26 06:23:20;;;;;;;1.58;0.57;;;;;;;;;;5089303;28;20016;-76
2023/08/26 06:25:52;;;;;;;6.28;1.02;;;;;;;;;;5105343;28;20023;-76
2023/08/26 06:28:18;;;;;;;4.22;1.60;;;;;;;;;;5090674;28;20029;-75
2023/08/26 06:30:44;;;;;;;4.45;1.38;;;;;;;;;;5089982;28;20100;-76
2023/08/26 06:33:13;;;;;;;6.45;1.13;;;;;;;;;;5093441;28;20032;-76
2023/08/26 06:35:39;;;;;;;2.28;0.90;;;;;;;;;;5113880;28;20041;-75
2023/08/26 06:38:05;;;;;;;5.78;1.55;;;;;;;;;;5096051;28;20020;-76
2023/08/26 06:40:31;;;;;;;5.22;1.52;;;;;;;;;;5096196;28;20020;-76
2023/08/26 06:42:57;;;;;;;4.38;0.90;;;;;;;;;;5112386;28;20024;-76
2023/08/26 06:45:24;;;;;;;4.03;1.30;;;;;;;;;;5095961;28;20051;-76
2023/08/26 06:47:50;;;;;;;2.33;1.17;;;;;;;;;;5097469;28;20067;-75
2023/08/26 06:50:16;;;;;;;2.60;0.90;;;;;;;;;;5094566;28;20033;-76
2023/08/26 06:52:42;;;;;;;8.82;1.30;;;;;;;;;;5113415;28;20084;-76
2023/08/26 06:55:09;;;;;;;4.90;1.02;;;;;;;;;;5091827;28;20088;-75
2023/08/26 06:57:38;;;;;;;4.72;1.42;;;;;;;;;;5095447;28;20028;-76
2023/08/26 07:00:05;;;;;;;5.78;1.00;;;;;;;;;;5111482;28;20046;-77
2023/08/26 07:02:31;;;;;;;1.95;1.05;;;;;;;;;;5090042;28;20046;-75
2023/08/26 07:04:59;;;;;;;5.60;1.00;;;;;;;;;;5112468;28;20020;-76
2023/08/26 07:07:25;;;;;;;7.68;1.10;;;;;;;;;;5112486;27;20020;-76
2023/08/26 07:09:51;;;;;;;4.80;0.95;;;;;;;;;;5111975;28;20031;-76
2023/08/26 07:12:17;;;;;;;4.97;1.15;;;;;;;;;;5100025;28;20012;-76
2023/08/26 07:14:43;;;;;;;2.28;1.25;;;;;;;;;;5094060;28;20118;-76
2023/08/26 07:17:09;;;;;;;2.72;1.13;;;;;;;;;;5093107;28;20048;-76
2023/08/26 07:19:35;;;;;;;5.05;1.60;;;;;;;;;;5093454;28;20386;-75
2023/08/26 07:22:03;;;;;;;5.15;1.15;;;;;;;;;;5113325;28;20048;-75
2023/08/26 07:24:29;;;;;;;2.30;0.68;;;;;;;;;;5113302;28;20012;-75
2023/08/26 07:26:55;;;;;;;6.35;1.70;;;;;;;;;;5113438;28;20029;-76
2023/08/26 07:29:21;;;;;;;4.43;0.80;;;;;;;;;;5094070;27;20040;-76
2023/08/26 07:31:47;;;;;;;8.15;1.40;;;;;;;;;;5093471;28;20459;-77
2023/08/26 07:34:16;;;;;;;2.67;1.15;;;;;;;;;;5094070;28;20035;-77
2023/08/26 07:36:42;;;;;;;3.17;0.93;;;;;;;;;;5093030;28;20035;-76
2023/08/26 07:39:10;;;;;;;2.50;0.75;;;;;;;;;;5110051;28;20425;-76
2023/08/26 07:41:38;;;;;;;3.35;1.20;;;;;;;;;;5095189;28;20040;-75
2023/08/26 07:44:07;;;;;;;4.93;1.13;;;;;;;;;;5091670;28;20036;-75
2023/08/26 07:46:33;;;;;;;1.95;0.45;;;;;;;;;;5088735;28;20032;-75
2023/08/26 07:48:59;;;;;;;3.00;0.75;;;;;;;;;;5092284;28;20162;-76
2023/08/26 07:51:25;;;;;;;2.92;1.20;;;;;;;;;;5094974;28;20047;-76
2023/08/26 07:53:51;;;;;;;5.30;0.98;;;;;;;;;;5091470;28;20025;-76
2023/08/26 07:56:19;;;;;;;3.33;0.90;;;;;;;;;;5107530;28;20107;-78
2023/08/26 07:58:45;;;;;;;4.45;1.00;;;;;;;;;;5096369;28;20025;-76
2023/08/26 08:01:11;;;;;;;2.90;0.77;;;;;;;;;;5087299;28;20047;-76
2023/08/26 08:03:37;;;;;;;3.88;0.85;;;;;;;;;;5108248;28;20021;-76
2023/08/26 08:06:03;;;;;;;2.80;0.77;;;;;;;;;;5087986;28;20041;-76
2023/08/26 08:08:29;;;;;;;2.10;0.88;;;;;;;;;;5087346;28;20043;-76
2023/08/26 08:10:55;;;;;;;3.15;0.75;;;;;;;;;;5109214;28;20033;-76
2023/08/26 08:13:21;;;;;;;1.80;0.75;;;;;;;;;;5109129;28;20179;-75
2023/08/26 08:15:47;;;;;;;4.70;1.25;;;;;;;;;;5086265;28;20035;-76
2023/08/26 08:18:16;;;;;;;6.75;1.20;;;;;;;;;;5091072;28;20348;-76
2023/08/26 08:20:42;;;;;;;3.78;1.35;;;;;;;;;;5107713;28;20029;-75
2023/08/26 08:23:10;;;;;;;3.95;0.80;;;;;;;;;;5106597;28;20189;-76
2023/08/26 08:25:36;;;;;;;1.67;0.60;;;;;;;;;;5108466;28;20037;-76
2023/08/26 08:28:02;;;;;;;1.45;0.70;;;;;;;;;;5106478;28;20055;-76
2023/08/26 08:30:31;;;;;;;3.67;0.80;;;;;;;;;;5094907;28;20108;-77
2023/08/26 08:32:57;;;;;;;2.80;0.60;;;;;;;;;;5088646;28;20021;-76
2023/08/26 08:35:23;;;;;;;5.38;1.00;;;;;;;;;;5107383;28;20016;-76
2023/08/26 08:37:49;;;;;;;2.90;0.60;;;;;;;;;;5091253;28;20059;-77
2023/08/26 08:40:15;;;;;;;2.35;0.60;;;;;;;;;;5086938;28;20031;-76
2023/08/26 08:42:43;;;;;;;3.78;0.50;;;;;;;;;;5106460;28;20028;-76
2023/08/26 08:45:11;;;;;;;2.70;1.00;;;;;;;;;;5108093;28;20009;-76
2023/08/26 08:47:37;;;;;;;2.17;0.88;;;;;;;;;;5109224;28;20023;-76
2023/08/26 08:50:04;;;;;;;3.83;0.60;;;;;;;;;;5086579;28;20028;-76
2023/08/26 08:52:31;;;;;;;1.02;0.30;;;;;;;;;;5087971;28;20025;-76
2023/08/26 08:54:57;;;;;;;2.80;0.70;;;;;;;;;;5084371;28;20047;-74
2023/08/26 08:57:29;;;;;;;1.95;0.95;;;;;;;;;;5090333;28;20040;-74
2023/08/26 08:59:58;;;;;;;1.60;0.70;;;;;;;;;;5107432;28;20016;-74
2023/08/26 09:02:24;;;;;;;2.10;0.88;;;;;;;;;;5106997;28;20025;-75
2023/08/26 09:04:51;;;;;;;4.05;0.32;;;;;;;;;;5103000;28;20523;-79
2023/08/26 09:07:17;;;;;;;6.18;0.75;;;;;;;;;;5085068;28;20036;-77
2023/08/26 09:09:44;;;;;;;0.70;0.38;;;;;;;;;;5083413;28;20029;-80
2023/08/26 09:12:10;;;;;;;3.42;0.80;;;;;;;;;;5077121;28;20334;-78
2023/08/26 09:14:35;;;;;;;5.20;1.23;;;;;;;;;;5075696;28;20036;-81
2023/08/26 09:17:17;;;;;;;3.65;1.02;;;;;;;;;;5094151;28;20025;-80
2023/08/26 09:19:58;;;;;;;2.50;0.50;;;;;;;;;;5074567;28;20036;-81
2023/08/26 09:22:24;;;;;;;3.25;0.60;;;;;;;;;;5083652;28;20060;-75
2023/08/26 09:24:53;;;;;;;1.92;0.57;;;;;;;;;;5085814;28;20100;-80
2023/08/26 09:27:19;;;;;;;1.75;0.40;;;;;;;;;;5092849;28;20044;-79
2023/08/26 09:29:46;;;;;;;2.25;0.70;;;;;;;;;;5072326;28;20024;-82
2023/08/26 09:32:12;;;;;;;2.05;0.65;;;;;;;;;;5069083;28;21217;-83
2023/08/26 09:34:38;;;;;;;1.73;0.60;;;;;;;;;;5069408;28;20106;-81
2023/08/26 09:37:07;;;;;;;0.80;0.40;;;;;;;;;;5068976;28;20028;-83
2023/08/26 09:39:33;;;;;;;1.75;0.43;;;;;;;;;;5069236;28;20039;-83
2023/08/26 09:42:00;;;;;;;1.75;0.90;;;;;;;;;;5084406;28;20033;-80
2023/08/26 09:44:27;;;;;;;5.20;1.00;;;;;;;;;;5068390;28;20028;-81
2023/08/26 09:46:56;;;;;;;1.10;0.30;;;;;;;;;;5084937;28;20036;-81
2023/08/26 09:49:22;;;;;;;3.10;0.82;;;;;;;;;;5093891;28;20033;-80
2023/08/26 09:51:50;;;;;;;0.90;0.60;;;;;;;;;;5066979;28;20032;-86
2023/08/26 09:54:17;;;;;;;3.40;0.52;;;;;;;;;;5062609;28;20028;-83
2023/08/26 09:56:43;;;;;;;1.83;0.30;;;;;;;;;;5064805;28;20120;-83
2023/08/26 09:59:09;;;;;;;1.40;0.50;;;;;;;;;;5065244;28;20039;-82
2023/08/26 10:01:35;;;;;;;3.08;0.88;;;;;;;;;;5089359;28;20032;-84
2023/08/26 10:04:04;;;;;;;2.55;0.50;;;;;;;;;;5068863;28;20066;-84
2023/08/26 10:06:31;;;;;;;1.20;0.38;;;;;;;;;;5081607;28;20572;-82
2023/08/26 10:09:06;;;;;;;3.65;0.65;;;;;;;;;;5062461;28;20123;-83
2023/08/26 10:11:37;;;;;;;0.45;0.28;;;;;;;;;;5080922;28;20037;-84
2023/08/26 10:14:05;;;;;;;1.65;0.25;;;;;;;;;;5067851;28;20338;-82
2023/08/26 10:16:31;;;;;;;1.80;0.40;;;;;;;;;;5082120;28;20033;-85
2023/08/26 10:18:58;;;;;;;5.32;0.50;;;;;;;;;;5065149;28;20052;-83
2023/08/26 10:21:24;;;;;;;2.75;0.30;;;;;;;;;;5082027;28;20058;-84
2023/08/26 10:23:51;;;;;;;1.52;0.45;;;;;;;;;;5079477;28;20059;-82
2023/08/26 10:26:20;;;;;;;3.70;0.70;;;;;;;;;;5063119;28;20032;-85
2023/08/26 10:28:50;;;;;;;1.33;0.30;;;;;;;;;;5081515;28;20028;-83
2023/08/26 10:31:19;;;;;;;2.10;0.43;;;;;;;;;;5063729;28;20081;-83
2023/08/26 10:33:58;;;;;;;1.08;0.45;;;;;;;;;;5080489;28;20036;-84
2023/08/26 10:36:24;;;;;;;0.80;0.30;;;;;;;;;;5079924;28;20044;-81
2023/08/26 10:38:57;;;;;;;2.85;0.40;;;;;;;;;;5063923;28;20101;-85
2023/08/26 10:41:23;;;;;;;1.70;0.20;;;;;;;;;;5064486;28;20562;-85
2023/08/26 10:43:53;;;;;;;1.77;0.30;;;;;;;;;;5079238;28;20066;-81
2023/08/26 10:46:19;;;;;;;1.13;0.30;;;;;;;;;;5081646;28;20072;-86
2023/08/26 10:48:56;;;;;;;3.70;0.40;;;;;;;;;;5079600;28;20078;-80
2023/08/26 10:51:22;;;;;;;1.42;0.43;;;;;;;;;;5081412;28;20036;-84
2023/08/26 10:53:48;;;;;;;1.40;0.60;;;;;;;;;;5082942;28;20084;-86
2023/08/26 10:56:20;;;;;;;2.53;0.38;;;;;;;;;;5062319;28;20024;-85
2023/08/26 10:58:46;;;;;;;;;;;;;;;;;;5058472;28;20032;-85
2023/08/26 11:01:15;;;;;;;1.13;0.30;;;;;;;;;;5065329;28;19978;-84
2023/08/26 11:03:43;;;;;;;2.88;0.50;;;;;;;;;;5064179;28;20033;-84
2023/08/26 11:06:12;;;;;;;2.30;0.45;;;;;;;;;;5082635;28;20036;-86
2023/08/26 11:08:39;;;;;;;0.30;0.20;;;;;;;;;;5064178;28;20449;-81
2023/08/26 11:11:05;;;;;;;1.30;0.40;;;;;;;;;;5079794;28;20554;-83
2023/08/26 11:13:32;;;;;;;1.27;0.40;;;;;;;;;;5068421;28;20155;-86
2023/08/26 11:16:00;;;;;;;1.58;0.40;;;;;;;;;;5065212;28;20055;-85
2023/08/26 11:18:26;;;;;;;0.90;0.40;;;;;;;;;;5066134;28;20094;-84
2023/08/26 11:20:52;;;;;;;1.88;0.63;;;;;;;;;;5088285;28;20441;-86
2023/08/26 11:23:19;;;;;;;1.05;0.50;;;;;;;;;;5068034;28;20028;-86
2023/08/26 11:25:44;;;;;;;2.55;0.85;;;;;;;;;;5069549;28;20508;-83
2023/08/26 11:28:11;;;;;;;2.42;0.70;;;;;;;;;;5070639;28;20115;-85
2023/08/26 11:30:37;;;;;;;1.58;0.73;;;;;;;;;;5066864;28;20051;-86
2023/08/26 11:33:08;;;;;;;3.45;1.02;;;;;;;;;;5070484;28;20040;-82
2023/08/26 11:35:37;;;;;;;1.95;0.50;;;;;;;;;;5085921;28;20025;-82
2023/08/26 11:38:05;;;;;;;1.88;0.38;;;;;;;;;;5067411;28;20055;-85
2023/08/26 11:40:31;;;;;;;1.17;0.40;;;;;;;;;;5067834;28;20044;-85
2023/08/26 11:43:07;;;;;;;2.40;0.73;;;;;;;;;;5064044;28;20036;-84
2023/08/26 11:45:33;;;;;;;2.90;0.55;;;;;;;;;;5068200;28;20032;-83
2023/08/26 11:47:59;;;;;;;2.22;0.70;;;;;;;;;;5085074;28;21406;-85
2023/08/26 11:50:27;;;;;;;4.28;0.52;;;;;;;;;;5064151;28;20528;-82
2023/08/26 11:52:55;;;;;;;1.40;0.45;;;;;;;;;;5066184;28;20059;-83
2023/08/26 11:55:22;;;;;;;1.00;0.30;;;;;;;;;;5085227;28;20028;-84
2023/08/26 11:57:50;;;;;;;0.70;0.40;;;;;;;;;;5067170;28;20040;-86
2023/08/26 12:00:17;;;;;;;5.65;0.63;;;;;;;;;;5085840;28;20151;-82
2023/08/26 12:02:53;;;;;;;2.70;0.50;;;;;;;;;;5084622;28;20455;-83
2023/08/26 12:05:19;;;;;;;1.17;0.40;;;;;;;;;;5084028;28;20123;-83
2023/08/26 12:07:49;;;;;;;0.70;0.43;;;;;;;;;;5085016;28;20032;-85
2023/08/26 12:10:17;;;;;;;3.00;0.50;;;;;;;;;;5066915;28;20028;-82
2023/08/26 12:12:44;;;;;;;3.88;0.50;;;;;;;;;;5066303;28;20043;-84
2023/08/26 12:15:19;;;;;;;5.57;0.80;;;;;;;;;;5085055;28;20259;-83
2023/08/26 12:17:47;;;;;;;2.17;1.25;;;;;;;;;;5084641;28;20025;-85
2023/08/26 12:20:23;;;;;;;2.83;0.82;;;;;;;;;;5067593;28;21608;-84
2023/08/26 12:22:49;;;;;;;2.75;0.50;;;;;;;;;;5067915;28;20047;-85
2023/08/26 12:25:35;;;;;;;1.50;0.50;;;;;;;;;;5084113;28;20556;-85
2023/08/26 12:28:05;;;;;;;1.42;0.57;;;;;;;;;;5084372;28;21700;-84
2023/08/26 12:30:31;;;;;;;4.75;0.63;;;;;;;;;;5082980;28;20119;-85
2023/08/26 12:32:57;;;;;;;2.70;0.70;;;;;;;;;;5066247;28;20099;-84
2023/08/26 12:35:23;;;;;;;2.00;0.98;;;;;;;;;;5066140;28;20043;-85
2023/08/26 12:37:51;;;;;;;2.85;0.68;;;;;;;;;;5083971;28;20029;-86
2023/08/26 12:40:20;;;;;;;0.68;0.40;;;;;;;;;;5065500;28;20131;-84
2023/08/26 12:42:46;;;;;;;2.40;0.40;;;;;;;;;;5083179;28;20344;-83
2023/08/26 12:45:12;;;;;;;2.30;0.65;;;;;;;;;;5081674;28;20093;-83
2023/08/26 12:47:38;;;;;;;0.47;0.22;;;;;;;;;;5081011;28;20025;-85
2023/08/26 12:50:04;;;;;;;2.80;0.57;;;;;;;;;;5083574;28;20020;-84
2023/08/26 12:52:30;;;;;;;1.48;0.60;;;;;;;;;;5080697;28;20037;-83
2023/08/26 12:54:56;;;;;;;2.55;0.60;;;;;;;;;;5062618;28;20152;-85
2023/08/26 12:57:22;;;;;;;2.85;0.50;;;;;;;;;;5063001;28;20025;-82
2023/08/26 12:59:48;;;;;;;1.35;0.50;;;;;;;;;;5066121;28;20425;-82
2023/08/26 13:02:14;;;;;;;2.40;0.70;;;;;;;;;;5065668;28;20020;-84
2023/08/26 13:04:40;;;;;;;2.63;0.60;;;;;;;;;;5065744;28;20342;-83
2023/08/26 13:07:06;;;;;;;1.88;0.50;;;;;;;;;;5084349;28;20035;-85
2023/08/26 13:09:32;;;;;;;1.63;0.75;;;;;;;;;;5082815;28;20036;-84
2023/08/26 13:11:58;;;;;;;1.50;0.73;;;;;;;;;;5082287;28;20106;-83
2023/08/26 13:14:24;;;;;;;1.45;0.50;;;;;;;;;;5082937;28;20020;-83
2023/08/26 13:16:50;;;;;;;2.13;0.70;;;;;;;;;;5081421;28;20039;-82
2023/08/26 13:19:19;;;;;;;1.00;0.50;;;;;;;;;;5066073;28;20020;-83
2023/08/26 13:21:49;;;;;;;4.60;0.60;;;;;;;;;;5063553;28;20365;-85
2023/08/26 13:24:15;;;;;;;2.75;0.50;;;;;;;;;;5082776;28;20146;-84
2023/08/26 13:26:41;;;;;;;3.20;0.60;;;;;;;;;;5061821;28;20042;-80
2023/08/26 13:29:07;;;;;;;1.90;0.70;;;;;;;;;;5064985;28;20028;-81
2023/08/26 13:31:33;;;;;;;2.45;0.60;;;;;;;;;;5080954;28;20420;-84
2023/08/26 13:34:03;;;;;;;1.55;0.70;;;;;;;;;;5080871;28;20070;-81
2023/08/26 13:36:28;;;;;;;4.80;1.05;;;;;;;;;;5064664;28;20032;-83
2023/08/26 13:38:55;;;;;;;2.33;0.70;;;;;;;;;;5061388;28;20032;-83
2023/08/26 13:41:21;;;;;;;2.15;0.63;;;;;;;;;;5063753;28;20055;-80
2023/08/26 13:43:47;;;;;;;2.30;0.60;;;;;;;;;;5064913;28;20107;-80
2023/08/26 13:46:13;;;;;;;2.95;0.90;;;;;;;;;;5080616;28;20070;-84
2023/08/26 13:48:39;;;;;;;3.03;0.70;;;;;;;;;;5079084;28;20032;-81
2023/08/26 13:51:05;;;;;;;1.38;0.50;;;;;;;;;;5064908;28;20040;-82
2023/08/26 13:53:31;;;;;;;1.30;0.50;;;;;;;;;;5080781;28;20043;-82
2023/08/26 13:55:57;;;;;;;1.33;0.40;;;;;;;;;;5061373;28;20119;-80
2023/08/26 13:58:24;;;;;;;1.40;0.40;;;;;;;;;;5060229;28;20050;-83
2023/08/26 14:00:50;;;;;;;1.50;0.50;;;;;;;;;;5079694;28;20309;-84
2023/08/26 14:03:16;;;;;;;1.48;0.50;;;;;;;;;;5064799;28;20029;-84
2023/08/26 14:05:45;;;;;;;0.82;0.40;;;;;;;;;;5065183;28;20475;-82
2023/08/26 14:08:14;;;;;;;2.47;0.50;;;;;;;;;;5081723;28;20905;-84
2023/08/26 14:10:41;;;;;;;1.23;0.40;;;;;;;;;;5080036;28;20070;-82
2023/08/26 14:13:07;;;;;;;2.15;0.77;;;;;;;;;;5063897;28;20016;-80
2023/08/26 14:15:33;;;;;;;2.30;0.90;;;;;;;;;;5079836;28;20571;-82
2023/08/26 14:18:00;;;;;;;2.85;0.50;;;;;;;;;;5065075;28;20029;-84
2023/08/26 14:20:26;;;;;;;0.70;0.40;;;;;;;;;;5083070;28;20449;-83
2023/08/26 14:22:52;;;;;;;0.93;0.45;;;;;;;;;;5081576;28;20040;-82
2023/08/26 14:25:20;;;;;;;0.93;0.40;;;;;;;;;;5064247;28;20170;-83
2023/08/26 14:27:46;;;;;;;3.92;0.80;;;;;;;;;;5082005;28;20056;-82
2023/08/26 14:30:12;;;;;;;4.57;0.30;;;;;;;;;;5082212;28;20052;-84
2023/08/26 14:32:38;;;;;;;2.67;0.40;;;;;;;;;;5082299;28;20052;-84
2023/08/26 14:35:05;;;;;;;1.48;0.63;;;;;;;;;;5081175;28;20452;-82
2023/08/26 14:37:33;;;;;;;4.97;0.50;;;;;;;;;;5063225;28;20097;-83
2023/08/26 14:39:59;;;;;;;5.30;0.50;;;;;;;;;;5063072;28;20155;-82